Latest Weather Observations for Tibooburra Airport

IDN60801

Issued at 9:42 pm EDT Saturday 23 February 2019 (issued every 10 minutes, with the page automatically refreshed every 10 minutes)

About weather observations | Map of weather stations | Latest weather observations for NSW | Other Formats
Station Details ID: 046126 Name: TIBOOBURRA AIRPORT Lat: -29.44 Lon: 142.06 Height: 176.4 m
Data from the previous 72 hours. | See also: Recent months at Tibooburra Airport
Date/Time
EDT
Temp
°C
App
Temp
°C
Dew
Point
°C
Rel
Hum
%
Delta-T
°C
Wind Press
QNH
hPa
Press
MSL
hPa
Rain since
9am
mm
Dir  Spd
km/h
Gust
km/h
Spd
kts
Gust
kts
23/09:30pm 30.9 24.8 0.3 14 14.9 SE 22 30 12 16 1016.6 1015.4 0.0
23/09:00pm 31.6 24.8 0.9 14 15.2 SE 26 33 14 18 1016.1 1015.0 0.0
23/08:30pm 32.1 24.8 0.2 13 15.6 ESE 28 37 15 20 1015.8 1014.7 0.0
23/08:00pm 32.8 25.2 0.8 13 15.9 ESE 30 35 16 19 1015.3 1014.1 0.0
23/07:30pm 33.6 25.6 -2.2 10 17.0 ESE 30 39 16 21 1015.0 1013.8 0.0
23/07:00pm 34.2 25.7 -1.7 10 17.3 ESE 33 43 18 23 1014.8 1013.6 0.0
23/06:30pm 34.9 26.5 -1.2 10 17.6 ESE 33 46 18 25 1014.7 1013.5 0.0
23/06:24pm 34.6 26.1 -2.9 9 17.8 ESE 32 46 17 25 1014.7 1013.5 0.0
23/06:00pm 34.9 26.5 -1.2 10 17.6 ESE 33 44 18 24 1014.6 1013.4 0.0
23/05:30pm 35.1 25.7 -2.5 9 18.0 ESE 37 46 20 25 1014.8 1013.6 0.0
23/05:06pm 35.3 26.9 -0.9 10 17.8 ESE 33 52 18 28 1014.8 1013.6 0.0
23/05:00pm 35.1 26.5 -2.5 9 18.0 ESE 33 46 18 25 1014.9 1013.7 0.0
23/04:30pm 35.3 27.1 -0.9 10 17.8 ESE 32 48 17 26 1015.0 1013.8 0.0
23/04:00pm 34.7 26.4 -1.4 10 17.5 ESE 32 50 17 27 1015.3 1014.1 0.0
23/03:58pm 35.4 27.0 -0.8 10 17.8 ESE 33 52 18 28 1015.4 1014.2 0.0
23/03:30pm 34.9 26.5 -1.2 10 17.6 ESE 33 48 18 26 1015.7 1014.6 0.0
23/03:17pm 35.7 27.4 -0.6 10 18.0 ESE 33 54 18 29 1015.7 1014.6 0.0
23/03:00pm 34.9 26.5 -1.2 10 17.6 E 33 46 18 25 1016.0 1014.9 0.0
23/02:30pm 34.3 26.0 -1.7 10 17.3 ESE 32 43 17 23 1016.4 1015.2 0.0
23/02:00pm 33.9 25.7 0.5 12 16.6 ESE 33 52 18 28 1016.8 1015.6 0.0
23/01:45pm 34.3 26.6 -0.4 11 17.1 ESE 30 50 16 27 1016.9 1015.7 0.0
23/01:30pm 33.9 25.5 -0.7 11 16.9 E 33 44 18 24 1017.1 1015.9 0.0
23/01:00pm 33.7 25.7 0.4 12 16.5 ESE 32 46 17 25 1017.3 1016.1 0.0
23/12:30pm 33.5 26.0 1.3 13 16.2 E 30 44 16 24 1017.7 1016.5 0.0
23/12:00pm 32.8 25.0 1.8 14 15.6 E 32 41 17 22 1017.9 1016.7 0.0
23/11:30am 32.2 25.2 4.1 17 14.7 E 30 39 16 21 1018.0 1016.8 0.0
23/11:00am 31.4 24.8 4.2 18 14.2 E 28 35 15 19 1018.0 1016.8 0.0
23/10:30am 30.3 23.1 4.9 20 13.3 E 32 39 17 21 1017.9 1016.7 0.0
23/10:00am 29.5 22.3 4.9 21 12.8 E 32 39 17 21 1017.6 1016.4 0.0
23/09:30am 28.9 21.7 5.1 22 12.4 E 32 39 17 21 1017.6 1016.4 0.0
23/09:00am 27.6 22.0 5.2 24 11.6 E 24 30 13 16 1017.4 1016.2 0.0
23/08:30am 26.2 21.2 4.6 25 11.0 E 20 26 11 14 1017.1 1015.9 0.0
23/08:00am 25.2 19.7 3.8 25 10.7 ESE 22 26 12 14 1016.7 1015.5 0.0
23/07:30am 24.5 19.4 3.2 25 10.4 ESE 19 22 10 12 1016.1 1015.0 0.0
23/07:00am 24.5 20.1 2.6 24 10.6 SE 15 20 8 11 1015.5 1014.3 0.0
23/06:30am 24.6 20.0 1.5 22 11.0 SE 15 20 8 11 1015.1 1013.9 0.0
23/06:00am 24.9 20.2 1.1 21 11.3 SE 15 19 8 10 1014.9 1013.7 0.0
23/05:30am 25.0 19.9 0.5 20 11.5 SSE 17 20 9 11 1014.5 1013.3 0.0
23/05:00am 25.5 20.3 0.2 19 11.8 SSE 17 24 9 13 1014.4 1013.2 0.0
23/04:30am 26.0 20.4 -0.1 18 12.2 SSE 19 26 10 14 1014.3 1013.1 0.0
23/04:00am 26.4 20.0 -1.4 16 12.7 SSE 22 30 12 16 1014.3 1013.1 0.0
23/03:30am 26.8 20.7 -2.0 15 13.1 SSE 20 28 11 15 1014.4 1013.2 0.0
23/03:00am 26.9 20.4 -2.8 14 13.3 SSE 22 28 12 15 1014.6 1013.4 0.0
23/02:30am 27.2 20.7 -2.6 14 13.4 SSE 22 28 12 15 1014.8 1013.6 0.0
23/02:00am 27.6 21.0 -3.3 13 13.8 SSE 22 28 12 15 1015.0 1013.8 0.0
23/01:30am 27.9 21.3 -3.0 13 13.9 SSE 22 30 12 16 1015.1 1013.9 0.0
23/01:00am 28.5 21.5 -3.6 12 14.3 SSE 24 30 13 16 1015.2 1014.0 0.0
23/12:30am 28.9 21.9 -3.3 12 14.5 SSE 24 32 13 17 1015.3 1014.1 0.0
23/12:00am 29.5 22.6 -2.9 12 14.8 SSE 24 33 13 18 1015.4 1014.2 0.0
 
Date/Time
EDT
Temp
°C
App
Temp
°C
Dew
Point
°C
Rel
Hum
%
Delta-T
°C
Wind Press
QNH
hPa
Press
MSL
hPa
Rain since
9am
mm
Dir  Spd
km/h
Gust
km/h
Spd
kts
Gust
kts
22/11:30pm 29.9 22.2 -2.6 12 14.9 SSE 28 33 15 18 1015.4 1014.2 0.0
22/11:00pm 30.3 23.1 -2.2 12 15.1 SSE 26 35 14 19 1015.4 1014.2 0.0
22/10:30pm 30.8 23.6 -1.9 12 15.3 SSE 26 32 14 17 1015.1 1013.9 0.0
22/10:00pm 31.3 24.2 -1.5 12 15.5 SSE 26 32 14 17 1014.8 1013.6 0.0
22/09:30pm 31.9 24.5 -1.0 12 15.8 SSE 28 35 15 19 1014.4 1013.2 0.0
22/09:00pm 32.3 25.1 0.4 13 15.7 SSE 28 37 15 20 1014.1 1012.9 0.0
22/08:30pm 32.9 25.7 0.9 13 15.9 SE 28 35 15 19 1013.7 1012.5 0.0
22/08:00pm 33.5 25.6 1.3 13 16.2 SE 32 39 17 21 1013.3 1012.1 0.0
22/07:30pm 34.2 26.1 -0.4 11 17.0 SSE 32 41 17 22 1013.1 1011.9 0.0
22/07:00pm 34.8 26.6 -1.3 10 17.6 SE 32 41 17 22 1012.9 1011.7 0.0
22/06:30pm 35.6 28.4 0.6 11 17.7 SE 28 43 15 23 1012.7 1011.5 0.0
22/06:00pm 35.7 27.6 -0.6 10 18.0 SE 32 50 17 27 1012.7 1011.5 0.0
22/05:32pm 35.3 27.5 -0.9 10 17.8 SSE 30 48 16 26 1012.7 1011.5 0.0
22/05:30pm 35.6 27.4 -0.7 10 17.9 SSE 32 48 17 26 1012.7 1011.5 0.0
22/05:00pm 35.5 28.3 0.6 11 17.6 SE 28 39 15 21 1012.8 1011.6 0.0
22/04:30pm 35.7 29.3 0.7 11 17.7 SE 24 37 13 20 1013.1 1011.9 0.0
22/04:00pm 36.1 29.1 -0.3 10 18.2 SSE 26 37 14 20 1013.4 1012.2 0.0
22/03:39pm 36.0 28.6 -0.4 10 18.1 SSE 28 46 15 25 1013.6 1012.4 0.0
22/03:30pm 35.2 28.5 1.5 12 17.2 SE 26 41 14 22 1013.8 1012.6 0.0
22/03:00pm 35.3 28.2 1.6 12 17.2 SE 28 37 15 20 1014.1 1012.9 0.0
22/02:34pm 35.4 27.6 1.7 12 17.3 SE 32 50 17 27 1014.4 1013.2 0.0
22/02:30pm 35.2 28.3 2.6 13 16.9 ESE 28 50 15 27 1014.4 1013.2 0.0
22/02:07pm 34.3 27.5 3.0 14 16.3 SE 28 46 15 25 1014.6 1013.4 0.0
22/02:00pm 34.8 28.1 1.2 12 17.0 SE 26 37 14 20 1014.7 1013.5 0.0
22/01:41pm 34.0 27.1 2.8 14 16.1 SE 28 46 15 25 1014.8 1013.6 0.0
22/01:30pm 34.6 28.0 2.2 13 16.7 SE 26 41 14 22 1014.9 1013.7 0.0
22/01:00pm 34.1 27.8 5.6 17 15.4 ESE 28 39 15 21 1015.2 1014.0 0.0
22/12:30pm 33.1 27.5 5.6 18 14.8 SE 24 35 13 19 1015.4 1014.2 0.0
22/12:00pm 31.8 25.6 6.1 20 13.8 SE 28 39 15 21 1015.7 1014.6 0.0
22/11:30am 30.2 23.9 5.5 21 13.1 SE 28 37 15 20 1015.8 1014.7 0.0
22/11:00am 29.0 22.1 4.5 21 12.7 SE 30 41 16 22 1015.7 1014.6 0.0
22/10:30am 28.0 20.9 3.7 21 12.3 SE 30 39 16 21 1015.7 1014.6 0.0
22/10:00am 26.8 19.7 1.3 19 12.3 SE 28 35 15 19 1015.7 1014.6 0.0
22/09:30am 25.4 18.6 0.8 20 11.6 SSE 26 37 14 20 1015.7 1014.6 0.0
22/09:00am 24.4 18.3 0.7 21 11.1 S 22 28 12 15 1015.6 1014.4 0.0
22/08:30am 23.3 16.8 0.4 22 10.6 S 24 30 13 16 1015.5 1014.3 0.0
22/08:00am 22.5 16.5 0.9 24 10.0 S 22 28 12 15 1015.2 1014.0 0.0
22/07:30am 21.8 16.2 0.9 25 9.6 S 20 26 11 14 1014.9 1013.7 0.0
22/07:00am 22.0 15.9 0.5 24 9.8 S 22 28 12 15 1014.7 1013.5 0.0
22/06:30am 22.2 16.1 0.7 24 9.9 S 22 28 12 15 1014.6 1013.4 0.0
22/06:00am 22.3 16.3 0.8 24 9.9 S 22 28 12 15 1014.4 1013.2 0.0
22/05:30am 22.2 16.1 0.7 24 9.9 S 22 30 12 16 1014.3 1013.1 0.0
22/05:00am 22.7 16.6 0.5 23 10.2 S 22 28 12 15 1014.1 1012.9 0.0
22/04:30am 23.3 16.9 1.0 23 10.4 S 24 30 13 16 1014.2 1013.0 0.0
22/04:00am 23.6 16.8 0.7 22 10.6 S 26 32 14 17 1014.2 1013.0 0.0
22/03:30am 23.9 17.5 0.9 22 10.8 S 24 30 13 16 1014.1 1012.9 0.0
22/03:00am 24.4 18.0 0.7 21 11.1 SSE 24 32 13 17 1014.3 1013.1 0.0
22/02:30am 24.8 18.4 1.0 21 11.2 SSE 24 32 13 17 1014.4 1013.2 0.0
22/02:00am 25.2 18.8 0.7 20 11.5 SSE 24 33 13 18 1014.5 1013.3 0.0
22/01:30am 25.7 19.2 0.4 19 11.9 SSE 24 33 13 18 1014.7 1013.5 0.0
22/01:00am 26.1 19.2 0.0 18 12.2 SSE 26 32 14 17 1014.6 1013.4 0.0
22/12:30am 26.4 19.4 -0.6 17 12.5 SSE 26 35 14 19 1014.8 1013.6 0.0
22/12:00am 26.6 19.7 0.4 18 12.4 SSE 26 32 14 17 1015.0 1013.8 0.0
 
Date/Time
EDT
Temp
°C
App
Temp
°C
Dew
Point
°C
Rel
Hum
%
Delta-T
°C
Wind Press
QNH
hPa
Press
MSL
hPa
Rain since
9am
mm
Dir  Spd
km/h
Gust
km/h
Spd
kts
Gust
kts
21/11:30pm 27.0 20.4 -0.1 17 12.7 SSE 24 32 13 17 1015.1 1013.9 0.0
21/11:00pm 27.3 20.8 0.1 17 12.9 SSE 24 32 13 17 1015.1 1013.9 0.0
21/10:30pm 27.7 21.1 -0.4 16 13.2 SSE 24 35 13 19 1014.9 1013.7 0.0
21/10:00pm 28.2 21.1 -0.9 15 13.6 SSE 26 35 14 19 1014.5 1013.3 0.0
21/09:30pm 28.7 21.2 -1.4 14 14.0 SSE 28 37 15 20 1014.2 1013.0 0.0
21/09:00pm 29.3 21.7 -1.9 13 14.5 SSE 28 37 15 20 1013.8 1012.6 0.0
21/08:30pm 29.7 22.6 -1.6 13 14.6 SSE 26 37 14 20 1013.4 1012.2 0.0
21/08:00pm 30.3 21.8 -3.4 11 15.3 SSE 32 43 17 23 1013.2 1012.0 0.0
21/07:30pm 31.0 22.8 -4.1 10 15.9 S 30 41 16 22 1012.9 1011.7 0.0
21/07:00pm 31.5 22.9 -2.5 11 15.9 S 33 43 18 23 1012.8 1011.6 0.0
21/06:30pm 32.1 23.4 -3.3 10 16.4 SSE 33 46 18 25 1012.6 1011.4 0.0
21/06:00pm 32.3 24.0 -1.9 11 16.2 S 32 44 17 24 1012.4 1011.2 0.0
21/05:51pm 31.7 23.3 -2.3 11 15.9 S 32 50 17 27 1012.4 1011.2 0.0
21/05:30pm 32.1 24.1 -2.0 11 16.1 S 30 41 16 22 1012.6 1011.4 0.0
21/05:00pm 32.3 24.0 -1.9 11 16.2 S 32 43 17 23 1012.6 1011.4 0.0
21/04:30pm 32.0 24.2 -0.9 12 15.8 S 30 44 16 24 1013.0 1011.8 0.0
21/04:00pm 32.0 23.6 -2.1 11 16.1 SSE 32 44 17 24 1013.4 1012.2 0.0
21/03:30pm 31.6 23.2 -2.4 11 15.9 S 32 44 17 24 1013.9 1012.7 0.0
21/03:01pm 32.0 24.0 -2.1 11 16.1 S 30 57 16 31 1014.3 1013.1 0.0
21/03:00pm 30.5 22.4 -3.3 11 15.4 S 30 39 16 21 1014.4 1013.2 0.0
21/02:31pm 31.8 23.4 -1.1 12 15.7 S 33 56 18 30 1014.8 1013.6 0.0
21/02:30pm 31.0 22.9 -0.6 13 15.2 S 32 46 17 25 1014.8 1013.6 0.0
21/02:00pm 30.0 22.3 -0.4 14 14.5 S 30 43 16 23 1015.4 1014.2 0.0
21/01:30pm 29.8 22.3 1.3 16 14.0 SSE 30 44 16 24 1015.7 1014.6 0.0
21/01:00pm 28.6 21.6 2.0 18 13.1 SSE 28 41 15 22 1016.4 1015.2 0.0
21/12:30pm 28.0 21.0 2.2 19 12.7 SE 28 39 15 21 1016.8 1015.6 0.0
21/12:00pm 27.0 19.3 2.1 20 12.2 SE 32 41 17 22 1017.1 1015.9 0.0
21/11:30am 26.9 20.0 2.7 21 12.0 SSE 28 39 15 21 1017.1 1015.9 0.0
21/11:00am 25.8 18.0 1.8 21 11.6 SSE 32 48 17 26 1017.1 1015.9 0.0
21/10:30am 25.2 17.3 1.3 21 11.4 SSE 32 39 17 21 1017.0 1015.8 0.0
21/10:00am 23.8 16.6 0.8 22 10.7 SSE 28 37 15 20 1017.1 1015.9 0.0
21/09:30am 23.6 16.4 0.7 22 10.7 S 28 37 15 20 1016.8 1015.6 0.0
21/09:00am 22.9 16.4 0.1 22 10.4 S 24 33 13 18 1016.6 1015.4 0.0
21/08:30am 22.1 16.5 0.0 23 10.0 SSE 19 24 10 13 1016.1 1015.0 0.0
21/08:00am 21.0 16.2 0.2 25 9.4 SSE 15 20 8 11 1015.9 1014.8 0.0
21/07:30am 20.2 14.6 0.1 26 9.0 SSE 19 24 10 13 1015.4 1014.2 0.0
21/07:00am 20.3 14.5 0.2 26 9.0 SSE 20 24 11 13 1015.1 1013.9 0.0
21/06:30am 20.5 15.0 0.4 26 9.1 SSE 19 24 10 13 1014.9 1013.7 0.0
21/06:00am 20.7 14.9 0.0 25 9.3 SSE 20 26 11 14 1014.7 1013.5 0.0
21/05:30am 21.2 15.4 -0.1 24 9.6 SSE 20 26 11 14 1014.4 1013.2 0.0
21/05:00am 21.4 15.5 -0.6 23 9.8 SSE 20 26 11 14 1014.3 1013.1 0.0
21/04:30am 21.7 15.8 -0.9 22 10.0 S 20 26 11 14 1014.2 1013.0 0.0
21/04:00am 22.2 16.0 -0.5 22 10.2 S 22 30 12 16 1014.1 1012.9 0.0
21/03:30am 22.6 15.9 -0.8 21 10.5 S 24 30 13 16 1014.0 1012.8 0.0
21/03:00am 22.9 16.2 -1.2 20 10.7 S 24 32 13 17 1014.1 1012.9 0.0
21/02:30am 23.1 16.7 -1.8 19 11.0 S 22 30 12 16 1014.3 1013.1 0.0
21/02:00am 23.3 17.3 -1.6 19 11.1 S 20 26 11 14 1014.4 1013.2 0.0
21/01:30am 23.8 17.8 -1.9 18 11.4 S 20 26 11 14 1014.5 1013.3 0.0
21/01:00am 24.1 17.9 -3.3 16 11.9 S 20 28 11 15 1014.5 1013.3 0.0
21/12:30am 24.4 18.2 -3.0 16 12.0 S 20 24 11 13 1014.3 1013.1 0.0
21/12:00am 24.8 18.5 -3.6 15 12.3 S 20 26 11 14 1014.3 1013.1 0.0
 
Date/Time
EDT
Temp
°C
App
Temp
°C
Dew
Point
°C
Rel
Hum
%
Delta-T
°C
Wind Press
QNH
hPa
Press
MSL
hPa
Rain since
9am
mm
Dir  Spd
km/h
Gust
km/h
Spd
kts
Gust
kts
20/11:30pm 25.1 18.8 -4.2 14 12.6 S 20 30 11 16 1014.3 1013.1 0.0
20/11:00pm 25.7 19.4 -3.8 14 12.8 S 20 26 11 14 1014.1 1012.9 0.0
20/10:30pm 26.1 20.0 -2.5 15 12.8 S 20 26 11 14 1014.0 1012.8 0.0
20/10:00pm 26.6 20.5 -4.0 13 13.4 SSE 19 24 10 13 1013.7 1012.5 0.0

Other formats

Comma delimited format used in spreadsheet applications
http://www.bom.gov.au/fwo/IDN60801/IDN60801.95485.axf

JavaScript Object Notation format (JSON) in row-major order
http://www.bom.gov.au/fwo/IDN60801/IDN60801.95485.json

Data quality

Most of these data are generated automatically and are frequently updated. Quality checks on data are not normally performed. It is possible for incorrect values to appear. Refer to information at About Latest Weather Observations and please check the disclaimer before using these data.